sensor_id;sensor_type;location;lat;lon;timestamp;temperature;humidity
65637;DHT22;52327;42.622;23.316;2023-04-09T00:00:37;5.51;85.73
65637;DHT22;52327;42.622;23.316;2023-04-09T00:03:02;5.53;85.26
65637;DHT22;52327;42.622;23.316;2023-04-09T00:05:28;5.54;85.22
65637;DHT22;52327;42.622;23.316;2023-04-09T00:07:53;5.50;85.46
65637;DHT22;52327;42.622;23.316;2023-04-09T00:10:19;5.53;85.51
65637;DHT22;52327;42.622;23.316;2023-04-09T00:12:44;5.57;85.72
65637;DHT22;52327;42.622;23.316;2023-04-09T00:15:10;5.60;85.84
65637;DHT22;52327;42.622;23.316;2023-04-09T00:17:35;5.74;85.19
65637;DHT22;52327;42.622;23.316;2023-04-09T00:20:01;5.77;83.89
65637;DHT22;52327;42.622;23.316;2023-04-09T00:22:26;5.84;83.93
65637;DHT22;52327;42.622;23.316;2023-04-09T00:24:52;5.87;84.06
65637;DHT22;52327;42.622;23.316;2023-04-09T00:27:17;5.91;83.79
65637;DHT22;52327;42.622;23.316;2023-04-09T00:29:42;5.88;82.99
65637;DHT22;52327;42.622;23.316;2023-04-09T00:32:08;5.97;82.46
65637;DHT22;52327;42.622;23.316;2023-04-09T00:34:33;5.95;83.37
65637;DHT22;52327;42.622;23.316;2023-04-09T00:36:59;5.94;83.75
65637;DHT22;52327;42.622;23.316;2023-04-09T00:39:25;5.90;83.34
65637;DHT22;52327;42.622;23.316;2023-04-09T00:42:00;5.81;83.58
65637;DHT22;52327;42.622;23.316;2023-04-09T00:44:27;5.87;83.63
65637;DHT22;52327;42.622;23.316;2023-04-09T00:46:53;5.81;83.29
65637;DHT22;52327;42.622;23.316;2023-04-09T00:49:18;5.66;83.60
65637;DHT22;52327;42.622;23.316;2023-04-09T00:51:45;5.53;84.05
65637;DHT22;52327;42.622;23.316;2023-04-09T00:54:11;5.44;84.78
65637;DHT22;52327;42.622;23.316;2023-04-09T00:56:37;5.43;85.07
65637;DHT22;52327;42.622;23.316;2023-04-09T00:59:03;5.36;85.02
65637;DHT22;52327;42.622;23.316;2023-04-09T01:01:29;5.15;85.17
65637;DHT22;52327;42.622;23.316;2023-04-09T01:03:55;5.09;86.04
65637;DHT22;52327;42.622;23.316;2023-04-09T01:09:56;5.02;85.90
65637;DHT22;52327;42.622;23.316;2023-04-09T01:13:27;4.98;85.46
65637;DHT22;52327;42.622;23.316;2023-04-09T01:15:35;5.05;85.88
65637;DHT22;52327;42.622;23.316;2023-04-09T01:18:18;5.11;85.31
65637;DHT22;52327;42.622;23.316;2023-04-09T01:20:55;4.99;85.14
65637;DHT22;52327;42.622;23.316;2023-04-09T01:23:36;4.98;84.72
65637;DHT22;52327;42.622;23.316;2023-04-09T01:26:09;4.84;85.50
65637;DHT22;52327;42.622;23.316;2023-04-09T01:28:45;4.77;85.33
65637;DHT22;52327;42.622;23.316;2023-04-09T01:31:14;4.69;85.40
65637;DHT22;52327;42.622;23.316;2023-04-09T01:33:41;4.77;85.40
65637;DHT22;52327;42.622;23.316;2023-04-09T01:36:08;4.81;85.62
65637;DHT22;52327;42.622;23.316;2023-04-09T01:38:40;4.78;85.48
65637;DHT22;52327;42.622;23.316;2023-04-09T01:41:08;4.71;85.36
65637;DHT22;52327;42.622;23.316;2023-04-09T01:43:35;4.58;85.41
65637;DHT22;52327;42.622;23.316;2023-04-09T01:46:01;4.47;85.77
65637;DHT22;52327;42.622;23.316;2023-04-09T01:48:29;4.37;85.87
65637;DHT22;52327;42.622;23.316;2023-04-09T01:50:56;4.37;86.30
65637;DHT22;52327;42.622;23.316;2023-04-09T01:53:21;4.44;85.85
65637;DHT22;52327;42.622;23.316;2023-04-09T01:55:47;4.48;85.85
65637;DHT22;52327;42.622;23.316;2023-04-09T01:58:12;4.54;85.85
65637;DHT22;52327;42.622;23.316;2023-04-09T02:00:41;4.51;86.05
65637;DHT22;52327;42.622;23.316;2023-04-09T02:05:51;4.71;86.01
65637;DHT22;52327;42.622;23.316;2023-04-09T02:08:20;4.71;85.67
65637;DHT22;52327;42.622;23.316;2023-04-09T02:10:50;4.68;85.54
65637;DHT22;52327;42.622;23.316;2023-04-09T02:13:20;4.65;85.66
65637;DHT22;52327;42.622;23.316;2023-04-09T02:15:46;4.62;85.63
65637;DHT22;52327;42.622;23.316;2023-04-09T02:18:26;4.64;84.62
65637;DHT22;52327;42.622;23.316;2023-04-09T02:20:53;4.61;85.25
65637;DHT22;52327;42.622;23.316;2023-04-09T02:23:19;4.58;85.58
65637;DHT22;52327;42.622;23.316;2023-04-09T02:25:45;4.56;85.85
65637;DHT22;52327;42.622;23.316;2023-04-09T02:28:10;4.61;85.64
65637;DHT22;52327;42.622;23.316;2023-04-09T02:30:35;4.56;85.55
65637;DHT22;52327;42.622;23.316;2023-04-09T02:33:01;4.58;85.64
65637;DHT22;52327;42.622;23.316;2023-04-09T02:35:26;4.58;85.64
65637;DHT22;52327;42.622;23.316;2023-04-09T02:37:52;4.64;85.22
65637;DHT22;52327;42.622;23.316;2023-04-09T02:40:17;4.58;85.35
65637;DHT22;52327;42.622;23.316;2023-04-09T02:42:42;4.44;85.20
65637;DHT22;52327;42.622;23.316;2023-04-09T02:45:08;4.44;85.12
65637;DHT22;52327;42.622;23.316;2023-04-09T02:47:34;4.40;85.14
65637;DHT22;52327;42.622;23.316;2023-04-09T02:49:59;4.41;85.48
65637;DHT22;52327;42.622;23.316;2023-04-09T02:52:25;4.26;85.39
65637;DHT22;52327;42.622;23.316;2023-04-09T02:54:53;4.26;85.51
65637;DHT22;52327;42.622;23.316;2023-04-09T02:57:19;4.33;85.30
65637;DHT22;52327;42.622;23.316;2023-04-09T02:59:45;4.34;84.65
65637;DHT22;52327;42.622;23.316;2023-04-09T03:02:10;4.30;85.00
65637;DHT22;52327;42.622;23.316;2023-04-09T03:04:37;4.27;85.51
65637;DHT22;52327;42.622;23.316;2023-04-09T03:07:02;4.24;85.75
65637;DHT22;52327;42.622;23.316;2023-04-09T03:09:28;4.13;86.32
65637;DHT22;52327;42.622;23.316;2023-04-09T03:11:55;4.18;86.66
65637;DHT22;52327;42.622;23.316;2023-04-09T03:14:22;4.24;86.57
65637;DHT22;52327;42.622;23.316;2023-04-09T03:16:47;4.24;86.32
65637;DHT22;52327;42.622;23.316;2023-04-09T03:19:13;4.24;85.64
65637;DHT22;52327;42.622;23.316;2023-04-09T03:21:38;4.24;85.42
65637;DHT22;52327;42.622;23.316;2023-04-09T03:24:04;4.10;85.64
65637;DHT22;52327;42.622;23.316;2023-04-09T03:26:29;4.03;85.81
65637;DHT22;52327;42.622;23.316;2023-04-09T03:29:03;4.02;86.06
65637;DHT22;52327;42.622;23.316;2023-04-09T03:31:29;4.02;86.21
65637;DHT22;52327;42.622;23.316;2023-04-09T03:33:54;4.00;86.07
65637;DHT22;52327;42.622;23.316;2023-04-09T03:36:20;3.99;85.71
65637;DHT22;52327;42.622;23.316;2023-04-09T03:38:45;4.09;85.58
65637;DHT22;52327;42.622;23.316;2023-04-09T03:41:11;3.99;85.75
65637;DHT22;52327;42.622;23.316;2023-04-09T03:43:36;3.97;86.10
65637;DHT22;52327;42.622;23.316;2023-04-09T03:46:13;3.96;86.14
65637;DHT22;52327;42.622;23.316;2023-04-09T03:48:38;4.07;85.62
65637;DHT22;52327;42.622;23.316;2023-04-09T03:51:03;4.10;85.28
65637;DHT22;52327;42.622;23.316;2023-04-09T03:53:29;4.09;85.61
65637;DHT22;52327;42.622;23.316;2023-04-09T03:55:54;4.09;85.80
65637;DHT22;52327;42.622;23.316;2023-04-09T03:58:20;4.10;85.53
65637;DHT22;52327;42.622;23.316;2023-04-09T04:00:46;4.13;85.16
65637;DHT22;52327;42.622;23.316;2023-04-09T04:03:11;3.96;85.41
65637;DHT22;52327;42.622;23.316;2023-04-09T04:05:38;3.97;85.60
65637;DHT22;52327;42.622;23.316;2023-04-09T04:08:04;3.95;85.83
65637;DHT22;52327;42.622;23.316;2023-04-09T04:10:29;4.05;86.10
65637;DHT22;52327;42.622;23.316;2023-04-09T04:12:55;4.21;84.41
65637;DHT22;52327;42.622;23.316;2023-04-09T04:15:20;4.23;84.75
65637;DHT22;52327;42.622;23.316;2023-04-09T04:17:45;4.30;84.62
65637;DHT22;52327;42.622;23.316;2023-04-09T04:20:11;4.43;84.42
65637;DHT22;52327;42.622;23.316;2023-04-09T04:22:36;4.53;84.18
65637;DHT22;52327;42.622;23.316;2023-04-09T04:25:03;4.58;84.03
65637;DHT22;52327;42.622;23.316;2023-04-09T04:27:28;4.65;84.31
65637;DHT22;52327;42.622;23.316;2023-04-09T04:29:54;4.78;84.24
65637;DHT22;52327;42.622;23.316;2023-04-09T04:32:22;4.92;83.70
65637;DHT22;52327;42.622;23.316;2023-04-09T04:34:48;5.08;82.90
65637;DHT22;52327;42.622;23.316;2023-04-09T04:37:14;5.18;83.01
65637;DHT22;52327;42.622;23.316;2023-04-09T04:39:39;5.32;82.82
65637;DHT22;52327;42.622;23.316;2023-04-09T04:42:05;5.47;82.67
65637;DHT22;52327;42.622;23.316;2023-04-09T04:44:30;5.63;82.12
65637;DHT22;52327;42.622;23.316;2023-04-09T04:46:56;5.80;81.96
65637;DHT22;52327;42.622;23.316;2023-04-09T04:49:22;5.97;81.28
65637;DHT22;52327;42.622;23.316;2023-04-09T04:51:48;6.17;80.59
65637;DHT22;52327;42.622;23.316;2023-04-09T04:54:13;6.35;80.20
65637;DHT22;52327;42.622;23.316;2023-04-09T04:56:38;6.49;79.95
65637;DHT22;52327;42.622;23.316;2023-04-09T04:59:04;6.63;78.85
65637;DHT22;52327;42.622;23.316;2023-04-09T05:01:29;6.68;78.20
65637;DHT22;52327;42.622;23.316;2023-04-09T05:03:55;6.73;77.89
65637;DHT22;52327;42.622;23.316;2023-04-09T05:06:20;6.77;77.45
65637;DHT22;52327;42.622;23.316;2023-04-09T05:08:45;6.82;77.23
65637;DHT22;52327;42.622;23.316;2023-04-09T05:11:11;6.89;77.33
65637;DHT22;52327;42.622;23.316;2023-04-09T05:13:37;7.00;76.93
65637;DHT22;52327;42.622;23.316;2023-04-09T05:16:02;7.11;76.64
65637;DHT22;52327;42.622;23.316;2023-04-09T05:18:28;7.20;76.56
65637;DHT22;52327;42.622;23.316;2023-04-09T05:20:53;7.32;76.22
65637;DHT22;52327;42.622;23.316;2023-04-09T05:23:19;7.45;76.02
65637;DHT22;52327;42.622;23.316;2023-04-09T05:25:47;7.64;75.32
65637;DHT22;52327;42.622;23.316;2023-04-09T05:28:13;7.74;75.20
65637;DHT22;52327;42.622;23.316;2023-04-09T05:30:44;7.79;76.41
65637;DHT22;52327;42.622;23.316;2023-04-09T05:33:10;7.81;77.09
65637;DHT22;52327;42.622;23.316;2023-04-09T05:35:38;7.90;76.68
65637;DHT22;52327;42.622;23.316;2023-04-09T05:38:04;7.96;76.44
65637;DHT22;52327;42.622;23.316;2023-04-09T05:40:29;7.92;76.99
65637;DHT22;52327;42.622;23.316;2023-04-09T05:42:55;7.97;76.15
65637;DHT22;52327;42.622;23.316;2023-04-09T05:45:20;7.99;76.40
65637;DHT22;52327;42.622;23.316;2023-04-09T05:47:46;7.93;76.97
65637;DHT22;52327;42.622;23.316;2023-04-09T05:50:11;7.95;76.80
65637;DHT22;52327;42.622;23.316;2023-04-09T05:52:37;7.92;76.57
65637;DHT22;52327;42.622;23.316;2023-04-09T05:55:02;7.99;76.61
65637;DHT22;52327;42.622;23.316;2023-04-09T05:57:29;8.09;76.43
65637;DHT22;52327;42.622;23.316;2023-04-09T05:59:56;8.16;76.55
65637;DHT22;52327;42.622;23.316;2023-04-09T06:02:21;8.22;76.46
65637;DHT22;52327;42.622;23.316;2023-04-09T06:04:46;8.33;75.66
65637;DHT22;52327;42.622;23.316;2023-04-09T06:07:12;8.47;75.81
65637;DHT22;52327;42.622;23.316;2023-04-09T06:09:37;8.54;74.79
65637;DHT22;52327;42.622;23.316;2023-04-09T06:12:03;8.60;74.41
65637;DHT22;52327;42.622;23.316;2023-04-09T06:14:28;8.72;74.12
65637;DHT22;52327;42.622;23.316;2023-04-09T06:16:58;8.81;73.92
65637;DHT22;52327;42.622;23.316;2023-04-09T06:19:23;8.91;73.32
65637;DHT22;52327;42.622;23.316;2023-04-09T06:21:48;9.04;72.41
65637;DHT22;52327;42.622;23.316;2023-04-09T06:24:14;9.11;70.35
65637;DHT22;52327;42.622;23.316;2023-04-09T06:26:39;9.11;71.37
65637;DHT22;52327;42.622;23.316;2023-04-09T06:29:05;9.20;70.88
65637;DHT22;52327;42.622;23.316;2023-04-09T06:31:30;9.32;70.32
65637;DHT22;52327;42.622;23.316;2023-04-09T06:33:56;9.22;70.34
65637;DHT22;52327;42.622;23.316;2023-04-09T06:36:21;9.28;70.51
65637;DHT22;52327;42.622;23.316;2023-04-09T06:38:47;9.19;69.98
65637;DHT22;52327;42.622;23.316;2023-04-09T06:41:12;9.20;69.41
65637;DHT22;52327;42.622;23.316;2023-04-09T06:43:39;9.20;70.65
65637;DHT22;52327;42.622;23.316;2023-04-09T06:46:05;9.35;70.48
65637;DHT22;52327;42.622;23.316;2023-04-09T06:48:30;9.64;69.68
65637;DHT22;52327;42.622;23.316;2023-04-09T06:50:56;9.93;68.82
65637;DHT22;52327;42.622;23.316;2023-04-09T06:53:21;10.10;66.58
65637;DHT22;52327;42.622;23.316;2023-04-09T06:55:47;10.17;66.34
65637;DHT22;52327;42.622;23.316;2023-04-09T06:58:12;10.37;64.76
65637;DHT22;52327;42.622;23.316;2023-04-09T07:00:38;10.42;65.15
65637;DHT22;52327;42.622;23.316;2023-04-09T07:03:03;10.68;65.16
65637;DHT22;52327;42.622;23.316;2023-04-09T07:05:29;10.85;64.23
65637;DHT22;52327;42.622;23.316;2023-04-09T07:07:55;10.99;63.11
65637;DHT22;52327;42.622;23.316;2023-04-09T07:10:20;11.14;62.95
65637;DHT22;52327;42.622;23.316;2023-04-09T07:12:49;11.27;61.42
65637;DHT22;52327;42.622;23.316;2023-04-09T07:15:14;11.31;61.41
65637;DHT22;52327;42.622;23.316;2023-04-09T07:17:40;11.33;62.25
65637;DHT22;52327;42.622;23.316;2023-04-09T07:20:05;11.20;62.09
65637;DHT22;52327;42.622;23.316;2023-04-09T07:22:31;11.14;62.88
65637;DHT22;52327;42.622;23.316;2023-04-09T07:24:56;11.24;60.87
65637;DHT22;52327;42.622;23.316;2023-04-09T07:27:26;11.20;61.21
65637;DHT22;52327;42.622;23.316;2023-04-09T07:29:56;11.31;60.88
65637;DHT22;52327;42.622;23.316;2023-04-09T07:32:22;11.26;60.58
65637;DHT22;52327;42.622;23.316;2023-04-09T07:34:50;11.24;60.67
65637;DHT22;52327;42.622;23.316;2023-04-09T07:37:16;11.09;60.05
65637;DHT22;52327;42.622;23.316;2023-04-09T07:39:42;11.12;61.44
65637;DHT22;52327;42.622;23.316;2023-04-09T07:42:07;11.02;61.56
65637;DHT22;52327;42.622;23.316;2023-04-09T07:44:36;10.63;62.62
65637;DHT22;52327;42.622;23.316;2023-04-09T07:47:03;10.45;63.95
65637;DHT22;52327;42.622;23.316;2023-04-09T07:49:28;10.42;64.70
65637;DHT22;52327;42.622;23.316;2023-04-09T07:51:55;10.27;65.04
65637;DHT22;52327;42.622;23.316;2023-04-09T07:54:20;10.21;65.13
65637;DHT22;52327;42.622;23.316;2023-04-09T07:56:46;10.01;65.55
65637;DHT22;52327;42.622;23.316;2023-04-09T07:59:12;9.84;66.16
65637;DHT22;52327;42.622;23.316;2023-04-09T08:01:39;9.76;66.71
65637;DHT22;52327;42.622;23.316;2023-04-09T08:04:05;9.61;67.21
65637;DHT22;52327;42.622;23.316;2023-04-09T08:06:30;9.64;66.90
65637;DHT22;52327;42.622;23.316;2023-04-09T08:08:56;9.53;68.02
65637;DHT22;52327;42.622;23.316;2023-04-09T08:11:21;9.53;67.03
65637;DHT22;52327;42.622;23.316;2023-04-09T08:13:52;9.54;66.86
65637;DHT22;52327;42.622;23.316;2023-04-09T08:16:19;9.66;66.98
65637;DHT22;52327;42.622;23.316;2023-04-09T08:18:46;9.81;67.44
65637;DHT22;52327;42.622;23.316;2023-04-09T08:21:11;9.79;66.71
65637;DHT22;52327;42.622;23.316;2023-04-09T08:23:37;9.71;66.45
65637;DHT22;52327;42.622;23.316;2023-04-09T08:26:02;9.67;66.78
65637;DHT22;52327;42.622;23.316;2023-04-09T08:28:28;9.73;67.44
65637;DHT22;52327;42.622;23.316;2023-04-09T08:30:53;9.79;67.27
65637;DHT22;52327;42.622;23.316;2023-04-09T08:33:19;9.81;66.71
65637;DHT22;52327;42.622;23.316;2023-04-09T08:35:46;9.66;66.30
65637;DHT22;52327;42.622;23.316;2023-04-09T08:38:11;9.74;66.30
65637;DHT22;52327;42.622;23.316;2023-04-09T08:40:37;9.76;66.47
65637;DHT22;52327;42.622;23.316;2023-04-09T08:43:06;9.76;66.87
65637;DHT22;52327;42.622;23.316;2023-04-09T08:45:33;9.59;67.44
65637;DHT22;52327;42.622;23.316;2023-04-09T08:47:58;9.59;67.06
65637;DHT22;52327;42.622;23.316;2023-04-09T08:50:25;9.60;67.38
65637;DHT22;52327;42.622;23.316;2023-04-09T08:52:52;9.49;68.09
65637;DHT22;52327;42.622;23.316;2023-04-09T08:55:17;9.53;67.90
65637;DHT22;52327;42.622;23.316;2023-04-09T08:57:43;9.66;67.97
65637;DHT22;52327;42.622;23.316;2023-04-09T09:00:08;9.86;68.21
65637;DHT22;52327;42.622;23.316;2023-04-09T09:02:34;9.89;67.23
65637;DHT22;52327;42.622;23.316;2023-04-09T09:05:00;9.80;66.51
65637;DHT22;52327;42.622;23.316;2023-04-09T09:07:29;9.89;67.75
65637;DHT22;52327;42.622;23.316;2023-04-09T09:09:57;9.90;66.92
65637;DHT22;52327;42.622;23.316;2023-04-09T09:14:56;9.94;66.99
65637;DHT22;52327;42.622;23.316;2023-04-09T09:17:21;9.95;66.63
65637;DHT22;52327;42.622;23.316;2023-04-09T09:19:47;10.11;67.20
65637;DHT22;52327;42.622;23.316;2023-04-09T09:22:12;10.22;66.43
65637;DHT22;52327;42.622;23.316;2023-04-09T09:24:49;10.25;65.85
65637;DHT22;52327;42.622;23.316;2023-04-09T09:27:34;10.35;65.21
65637;DHT22;52327;42.622;23.316;2023-04-09T09:30:04;10.41;64.82
65637;DHT22;52327;42.622;23.316;2023-04-09T09:32:31;10.49;64.15
65637;DHT22;52327;42.622;23.316;2023-04-09T09:35:06;10.73;64.26
65637;DHT22;52327;42.622;23.316;2023-04-09T09:37:32;10.96;63.89
65637;DHT22;52327;42.622;23.316;2023-04-09T09:39:59;11.09;63.10
65637;DHT22;52327;42.622;23.316;2023-04-09T09:42:25;11.24;61.48
65637;DHT22;52327;42.622;23.316;2023-04-09T09:44:52;11.33;62.06
65637;DHT22;52327;42.622;23.316;2023-04-09T09:47:20;11.31;60.83
65637;DHT22;52327;42.622;23.316;2023-04-09T09:49:49;11.45;61.03
65637;DHT22;52327;42.622;23.316;2023-04-09T09:52:18;11.51;60.89
65637;DHT22;52327;42.622;23.316;2023-04-09T09:54:46;11.77;60.88
65637;DHT22;52327;42.622;23.316;2023-04-09T09:57:12;11.75;60.08
65637;DHT22;52327;42.622;23.316;2023-04-09T09:59:42;11.92;59.95
65637;DHT22;52327;42.622;23.316;2023-04-09T10:02:17;11.96;58.83
65637;DHT22;52327;42.622;23.316;2023-04-09T10:04:43;12.21;57.97
65637;DHT22;52327;42.622;23.316;2023-04-09T10:07:09;12.47;58.10
65637;DHT22;52327;42.622;23.316;2023-04-09T10:09:37;12.63;57.35
65637;DHT22;52327;42.622;23.316;2023-04-09T10:12:05;12.80;57.12
65637;DHT22;52327;42.622;23.316;2023-04-09T10:14:32;13.03;55.95
65637;DHT22;52327;42.622;23.316;2023-04-09T10:16:58;13.08;53.89
65637;DHT22;52327;42.622;23.316;2023-04-09T10:19:24;13.10;55.15
65637;DHT22;52327;42.622;23.316;2023-04-09T10:22:05;13.07;53.99
65637;DHT22;52327;42.622;23.316;2023-04-09T10:24:33;13.18;53.60
65637;DHT22;52327;42.622;23.316;2023-04-09T10:27:09;13.38;54.06
65637;DHT22;52327;42.622;23.316;2023-04-09T10:29:41;13.73;52.84
65637;DHT22;52327;42.622;23.316;2023-04-09T10:32:08;14.05;50.15
65637;DHT22;52327;42.622;23.316;2023-04-09T10:34:38;14.45;49.29
65637;DHT22;52327;42.622;23.316;2023-04-09T10:37:08;14.63;49.50
65637;DHT22;52327;42.622;23.316;2023-04-09T10:39:45;14.75;48.65
65637;DHT22;52327;42.622;23.316;2023-04-09T10:42:13;14.87;47.70
65637;DHT22;52327;42.622;23.316;2023-04-09T10:44:40;14.96;48.10
65637;DHT22;52327;42.622;23.316;2023-04-09T10:47:10;15.02;46.41
65637;DHT22;52327;42.622;23.316;2023-04-09T10:49:40;15.29;46.75
65637;DHT22;52327;42.622;23.316;2023-04-09T10:52:10;15.38;46.42
65637;DHT22;52327;42.622;23.316;2023-04-09T10:54:44;15.53;45.93
65637;DHT22;52327;42.622;23.316;2023-04-09T10:57:13;15.83;45.92
65637;DHT22;52327;42.622;23.316;2023-04-09T10:59:47;16.14;44.05
65637;DHT22;52327;42.622;23.316;2023-04-09T11:08:07;15.76;44.88
65637;DHT22;52327;42.622;23.316;2023-04-09T11:10:40;15.89;44.71
65637;DHT22;52327;42.622;23.316;2023-04-09T11:13:13;15.87;43.87
65637;DHT22;52327;42.622;23.316;2023-04-09T11:15:39;15.97;44.57
65637;DHT22;52327;42.622;23.316;2023-04-09T11:18:05;15.87;44.66
65637;DHT22;52327;42.622;23.316;2023-04-09T11:20:38;15.86;44.42
65637;DHT22;52327;42.622;23.316;2023-04-09T11:23:04;15.96;44.90
65637;DHT22;52327;42.622;23.316;2023-04-09T11:25:32;16.11;45.00
65637;DHT22;52327;42.622;23.316;2023-04-09T11:27:59;16.22;43.40
65637;DHT22;52327;42.622;23.316;2023-04-09T11:30:26;16.31;44.66
65637;DHT22;52327;42.622;23.316;2023-04-09T11:32:53;16.32;43.88
65637;DHT22;52327;42.622;23.316;2023-04-09T11:35:20;16.42;43.76
65637;DHT22;52327;42.622;23.316;2023-04-09T11:37:46;16.34;43.72
65637;DHT22;52327;42.622;23.316;2023-04-09T11:40:19;16.13;44.21
65637;DHT22;52327;42.622;23.316;2023-04-09T11:42:47;15.70;46.62
65637;DHT22;52327;42.622;23.316;2023-04-09T11:45:14;15.43;47.98
65637;DHT22;52327;42.622;23.316;2023-04-09T11:47:39;15.13;49.00
65637;DHT22;52327;42.622;23.316;2023-04-09T11:50:07;14.85;51.53
65637;DHT22;52327;42.622;23.316;2023-04-09T11:52:32;14.75;52.39
65637;DHT22;52327;42.622;23.316;2023-04-09T11:55:03;14.56;50.64
65637;DHT22;52327;42.622;23.316;2023-04-09T12:00:16;14.37;51.73
65637;DHT22;52327;42.622;23.316;2023-04-09T12:02:47;14.43;50.91
65637;DHT22;52327;42.622;23.316;2023-04-09T12:05:23;14.45;50.61
65637;DHT22;52327;42.622;23.316;2023-04-09T12:07:49;14.59;49.40
65637;DHT22;52327;42.622;23.316;2023-04-09T12:10:15;14.60;48.86
65637;DHT22;52327;42.622;23.316;2023-04-09T12:12:50;14.59;48.63
65637;DHT22;52327;42.622;23.316;2023-04-09T12:15:20;14.65;48.37
65637;DHT22;52327;42.622;23.316;2023-04-09T12:17:50;14.74;48.44
65637;DHT22;52327;42.622;23.316;2023-04-09T12:20:34;14.93;47.71
65637;DHT22;52327;42.622;23.316;2023-04-09T12:23:01;14.95;46.79
65637;DHT22;52327;42.622;23.316;2023-04-09T12:25:32;15.18;47.69
65637;DHT22;52327;42.622;23.316;2023-04-09T12:27:58;15.52;46.92
65637;DHT22;52327;42.622;23.316;2023-04-09T12:30:24;15.83;47.03
65637;DHT22;52327;42.622;23.316;2023-04-09T12:32:51;16.59;45.16
65637;DHT22;52327;42.622;23.316;2023-04-09T12:35:17;16.99;41.98
65637;DHT22;52327;42.622;23.316;2023-04-09T12:37:43;17.51;41.44
65637;DHT22;52327;42.622;23.316;2023-04-09T12:40:08;17.27;42.90
65637;DHT22;52327;42.622;23.316;2023-04-09T12:42:35;17.13;42.31
65637;DHT22;52327;42.622;23.316;2023-04-09T12:45:00;17.70;41.73
65637;DHT22;52327;42.622;23.316;2023-04-09T12:47:25;18.04;40.90
65637;DHT22;52327;42.622;23.316;2023-04-09T12:49:53;17.50;39.89
65637;DHT22;52327;42.622;23.316;2023-04-09T12:52:18;16.95;42.07
65637;DHT22;52327;42.622;23.316;2023-04-09T12:54:43;16.65;43.71
65637;DHT22;52327;42.622;23.316;2023-04-09T12:57:09;16.61;43.59
65637;DHT22;52327;42.622;23.316;2023-04-09T12:59:35;16.92;42.79
65637;DHT22;52327;42.622;23.316;2023-04-09T13:02:00;17.88;41.95
65637;DHT22;52327;42.622;23.316;2023-04-09T13:04:26;18.57;39.00
65637;DHT22;52327;42.622;23.316;2023-04-09T13:06:51;18.18;39.51
65637;DHT22;52327;42.622;23.316;2023-04-09T13:09:17;17.40;40.86
65637;DHT22;52327;42.622;23.316;2023-04-09T13:11:42;16.77;42.70
65637;DHT22;52327;42.622;23.316;2023-04-09T13:14:08;16.32;42.96
65637;DHT22;52327;42.622;23.316;2023-04-09T13:16:40;15.82;42.46
65637;DHT22;52327;42.622;23.316;2023-04-09T13:19:10;15.50;43.55
65637;DHT22;52327;42.622;23.316;2023-04-09T13:21:35;15.53;44.05
65637;DHT22;52327;42.622;23.316;2023-04-09T13:24:02;15.59;43.84
65637;DHT22;52327;42.622;23.316;2023-04-09T13:26:29;15.54;43.94
65637;DHT22;52327;42.622;23.316;2023-04-09T13:28:55;15.57;45.13
65637;DHT22;52327;42.622;23.316;2023-04-09T13:31:20;15.59;44.62
65637;DHT22;52327;42.622;23.316;2023-04-09T13:33:45;15.80;44.33
65637;DHT22;52327;42.622;23.316;2023-04-09T13:36:11;15.96;44.70
65637;DHT22;52327;42.622;23.316;2023-04-09T13:38:36;16.13;43.70
65637;DHT22;52327;42.622;23.316;2023-04-09T13:41:02;16.21;43.82
65637;DHT22;52327;42.622;23.316;2023-04-09T13:43:28;16.20;42.37
65637;DHT22;52327;42.622;23.316;2023-04-09T13:45:54;15.84;42.28
65637;DHT22;52327;42.622;23.316;2023-04-09T13:48:22;15.44;43.08
65637;DHT22;52327;42.622;23.316;2023-04-09T13:50:47;15.44;44.25
65637;DHT22;52327;42.622;23.316;2023-04-09T13:53:13;15.67;44.00
65637;DHT22;52327;42.622;23.316;2023-04-09T13:55:38;15.77;44.70
65637;DHT22;52327;42.622;23.316;2023-04-09T13:58:04;15.71;43.88
65637;DHT22;52327;42.622;23.316;2023-04-09T14:00:30;15.56;43.96
65637;DHT22;52327;42.622;23.316;2023-04-09T14:02:56;15.44;44.45
65637;DHT22;52327;42.622;23.316;2023-04-09T14:05:22;15.21;45.40
65637;DHT22;52327;42.622;23.316;2023-04-09T14:07:47;15.15;46.02
65637;DHT22;52327;42.622;23.316;2023-04-09T14:10:12;14.95;44.79
65637;DHT22;52327;42.622;23.316;2023-04-09T14:12:38;14.75;45.41
65637;DHT22;52327;42.622;23.316;2023-04-09T14:15:04;14.43;46.61
65637;DHT22;52327;42.622;23.316;2023-04-09T14:17:29;14.16;47.61
65637;DHT22;52327;42.622;23.316;2023-04-09T14:19:55;13.96;48.62
65637;DHT22;52327;42.622;23.316;2023-04-09T14:22:23;13.70;48.11
65637;DHT22;52327;42.622;23.316;2023-04-09T14:24:49;13.54;49.65
65637;DHT22;52327;42.622;23.316;2023-04-09T14:27:15;13.45;48.73
65637;DHT22;52327;42.622;23.316;2023-04-09T14:29:41;13.37;49.64
65637;DHT22;52327;42.622;23.316;2023-04-09T14:32:06;13.35;50.96
65637;DHT22;52327;42.622;23.316;2023-04-09T14:34:32;13.21;50.81
65637;DHT22;52327;42.622;23.316;2023-04-09T14:36:57;13.04;52.08
65637;DHT22;52327;42.622;23.316;2023-04-09T14:39:23;12.77;51.63
65637;DHT22;52327;42.622;23.316;2023-04-09T14:41:48;12.60;52.38
65637;DHT22;52327;42.622;23.316;2023-04-09T14:44:13;12.52;52.65
65637;DHT22;52327;42.622;23.316;2023-04-09T14:46:39;12.53;52.13
65637;DHT22;52327;42.622;23.316;2023-04-09T14:49:04;12.50;52.47
65637;DHT22;52327;42.622;23.316;2023-04-09T14:51:30;12.35;53.28
65637;DHT22;52327;42.622;23.316;2023-04-09T14:53:56;12.32;51.95
65637;DHT22;52327;42.622;23.316;2023-04-09T14:56:22;12.42;51.75
65637;DHT22;52327;42.622;23.316;2023-04-09T14:58:49;12.49;51.32
65637;DHT22;52327;42.622;23.316;2023-04-09T15:01:15;12.55;50.43
65637;DHT22;52327;42.622;23.316;2023-04-09T15:03:41;12.55;50.30
65637;DHT22;52327;42.622;23.316;2023-04-09T15:06:07;12.75;49.36
65637;DHT22;52327;42.622;23.316;2023-04-09T15:08:32;12.90;49.09
65637;DHT22;52327;42.622;23.316;2023-04-09T15:10:58;13.37;46.40
65637;DHT22;52327;42.622;23.316;2023-04-09T15:13:23;13.65;46.55
65637;DHT22;52327;42.622;23.316;2023-04-09T15:15:49;13.61;45.27
65637;DHT22;52327;42.622;23.316;2023-04-09T15:18:14;13.75;45.02
65637;DHT22;52327;42.622;23.316;2023-04-09T15:20:40;13.62;45.60
65637;DHT22;52327;42.622;23.316;2023-04-09T15:23:08;13.47;45.04
65637;DHT22;52327;42.622;23.316;2023-04-09T15:25:33;13.27;45.70
65637;DHT22;52327;42.622;23.316;2023-04-09T15:27:59;13.24;45.94
65637;DHT22;52327;42.622;23.316;2023-04-09T15:30:24;13.21;45.36
65637;DHT22;52327;42.622;23.316;2023-04-09T15:32:50;13.73;45.08
65637;DHT22;52327;42.622;23.316;2023-04-09T15:35:16;14.10;43.73
65637;DHT22;52327;42.622;23.316;2023-04-09T15:37:48;13.98;42.68
65637;DHT22;52327;42.622;23.316;2023-04-09T15:40:14;13.82;43.36